Weather observations for the past three days for
St. James Municipal Airport
Imperial (Metric)
Date Time (cdt) Wind (mph) Vis. (mi.) Weather Sky Cond. Temperature (ºF) Relative Humidity Wind Chill (°F) Heat Index (°F) Pressure Precipitation (in)
Air Dwpt 6 hour altimeter (in) sea level (mb) 1 hr 3 hr 6 hr
Max. Min.
05 17:35 NW 21 G 26 10.00 Overcast and Breezy OVC075 51.8 21.2 30% 29.85 0.0
05 17:15 NW 17 10.00 Overcast OVC075 51.8 21.2 30% 29.85 0.0
05 16:55 NW 16 G 25 10.00 Overcast BKN075 OVC085 51.8 21.2 30% 29.85 0.0
05 16:35 NW 17 G 23 10.00 Overcast OVC080 51.8 21.2 30% 29.86 0.0
05 16:15 NW 22 10.00 Mostly Cloudy and Breezy BKN080 51.8 21.2 30% 29.85 0.0
05 15:55 NW 17 G 24 10.00 Mostly Cloudy BKN075 BKN080 53.6 21.2 28% 29.86 0.0
05 15:35 NW 17 G 24 10.00 Overcast BKN070 OVC080 51.8 21.2 30% 29.86 0.0
05 15:15 NW 13 G 22 10.00 Overcast OVC075 51.8 21.2 30% 29.87 0.0
05 14:55 NW 18 G 26 10.00 Overcast OVC080 51.8 21.2 30% 29.87 0.0
05 14:35 NW 13 G 23 10.00 Overcast BKN075 OVC085 51.8 21.2 30% 29.87 0.0
05 14:15 NW 15 G 22 10.00 Overcast FEW065 OVC075 50 21.2 32% 45 29.88 0.0
05 13:55 NW 16 G 23 10.00 Overcast BKN065 OVC075 50 23 35% 45 29.87 0.0
05 13:35 NW 16 G 24 10.00 Overcast BKN070 OVC080 50 21.2 32% 45 29.88 0.0
05 13:15 N 16 10.00 Overcast OVC075 51.8 23 32% 29.87 0.0
05 12:55 NW 17 G 23 10.00 Overcast BKN070 OVC075 50 23 35% 45 29.87 0.0
05 12:35 NW 18 10.00 Overcast BKN065 OVC075 50 23 35% 44 29.87 0.0
05 12:15 NW 15 10.00 Overcast BKN065 OVC075 50 23 35% 45 29.87 0.0
05 11:55 NW 14 G 21 10.00 Mostly Cloudy BKN070 BKN075 50 23 35% 45 29.87 0.0
05 11:35 NW 13 G 18 10.00 Mostly Cloudy FEW060 BKN070 50 24.8 37% 46 29.87 0.0
05 11:15 N 13 G 21 10.00 Mostly Cloudy SCT050 SCT055 BKN070 50 24.8 37% 46 29.88 0.0
05 10:55 NW 10 G 20 10.00 Mostly Cloudy SCT050 BKN055 BKN075 48.2 26.6 43% 44 29.88 0.0
05 10:35 NW 12 10.00 A Few Clouds FEW050 FEW055 48.2 26.6 43% 44 29.88 0.0
05 10:15 NW 10 G 18 10.00 Fair CLR 46.4 26.6 46% 42 29.88 0.0
05 09:55 NW 8 9.00 Fair CLR 46.4 26.6 46% 43 29.88 0.0
05 09:35 NW 7 10.00 Fair CLR 44.6 26.6 49% 41 29.87 0.0
05 09:15 N 9 10.00 Fair CLR 44.6 26.6 49% 40 29.87 0.0
05 08:55 NW 7 G 13 10.00 Fair CLR 44.6 26.6 49% 41 29.86 0.0
05 08:35 NW 8 10.00 A Few Clouds FEW060 42.8 28.4 57% 39 29.86 0.0
05 08:15 NW 7 10.00 Fair CLR 41 30.2 66% 37 29.85 0.0
05 07:55 W 5 10.00 Fair CLR 39.2 28.4 65% 36 29.85 0.0
05 07:35 W 5 10.00 Fair CLR 37.4 30.2 75% 34 29.84 0.0
05 07:15 W 6 10.00 Fair CLR 35.6 30.2 81% 31 29.84 0.0
05 06:55 NW 7 10.00 Fair CLR 32 28.4 87% 26 29.83 0.0
05 06:35 NW 6 10.00 Fair CLR 30.2 26.6 86% 25 29.81 0.0
05 06:15 NW 7 10.00 Fair CLR 32 26.6 80% 26 29.81 0.0
05 05:55 NW 8 10.00 Fair CLR 30.2 26.6 86% 23 29.8 0.0
05 05:35 W 9 10.00 Fair CLR 30.2 26.6 86% 23 29.8 0.0
05 05:15 NW 9 10.00 Fair CLR 30.2 26.6 86% 23 29.79 0.0
05 04:55 NW 9 10.00 Fair CLR 32 26.6 80% 25 29.79 0.0
05 04:35 W 8 10.00 Fair CLR 32 26.6 80% 25 29.79 0.0
05 04:15 W 8 10.00 Fair CLR 32 26.6 80% 25 29.79 0.0
05 03:55 W 8 10.00 Fair CLR 33.8 26.6 75% 28 29.78 0.0
05 03:35 W 9 10.00 Fair CLR 32 26.6 80% 25 29.78 0.0
05 03:15 W 9 10.00 Fair CLR 32 26.6 80% 25 29.78 0.0
05 02:55 W 8 10.00 Fair CLR 33.8 26.6 75% 28 29.77 0.0
05 02:35 W 8 10.00 Fair CLR 33.8 26.6 75% 28 29.77 0.0
05 02:15 W 8 10.00 Fair CLR 35.6 26.6 70% 30 29.77 0.0
05 01:55 W 9 10.00 Fair CLR 35.6 26.6 70% 29 29.77 0.0
05 01:35 W 8 10.00 Fair CLR 35.6 26.6 70% 30 29.77 0.0
05 01:15 W 9 10.00 Fair CLR 37.4 26.6 65% 31 29.77 0.0
05 00:55 W 8 10.00 Fair CLR 37.4 26.6 65% 32 29.77 0.0
05 00:35 W 7 10.00 Fair CLR 35.6 26.6 70% 31 29.77 0.0
05 00:15 W 7 10.00 Fair CLR 37.4 26.6 65% 33 29.77 0.0
04 23:55 W 7 10.00 Fair CLR 39.2 26.6 61% 35 29.76 0.0
04 23:35 W 7 10.00 Fair CLR 37.4 26.6 65% 33 29.76 0.0
04 23:15 W 7 10.00 Fair CLR 39.2 26.6 61% 35 29.76 0.0
04 22:55 W 6 10.00 Fair CLR 41 26.6 57% 38 29.76 0.0
04 22:35 NW 6 10.00 Fair CLR 42.8 24.8 49% 40 29.76 0.0
04 22:15 NW 8 10.00 Fair CLR 42.8 24.8 49% 39 29.76 0.0
04 21:55 NW 8 10.00 Fair CLR 46.4 24.8 43% 43 29.76 0.0
04 21:35 NW 9 10.00 Fair CLR 46.4 24.8 43% 42 29.75 0.0
04 21:15 N 12 10.00 Fair CLR 46.4 24.8 43% 42 29.74 0.0
04 20:55 NW 15 G 22 10.00 Fair CLR 48.2 24.8 40% 43 29.73 0.0
04 20:35 NW 21 10.00 Fair and Breezy CLR 50 23 35% 44 29.72 0.0
04 20:15 NW 21 G 28 10.00 Fair and Breezy CLR 51.8 24.8 35% 29.71 0.0
04 19:55 NW 22 G 31 10.00 Fair and Breezy CLR 51.8 24.8 35% 29.7 0.0
04 19:35 NW 21 G 30 10.00 Fair and Breezy CLR 53.6 24.8 33% 29.69 0.0
04 19:15 NW 23 G 29 10.00 Fair and Breezy CLR 53.6 26.6 35% 29.68 0.0
04 18:55 NW 24 G 33 10.00 Fair and Breezy CLR 55.4 26.6 33% 29.68 0.0
04 18:35 NW 25 G 37 10.00 A Few Clouds and Breezy FEW060 55.4 28.4 36% 29.68 0.0
04 18:15 NW 28 G 35 10.00 Fair and Windy CLR 55.4 28.4 36% 29.67 0.0
04 17:55 NW 26 G 37 10.00 Fair and Windy CLR 55.4 28.4 36% 29.67 0.0
04 17:35 NW 24 G 33 10.00 A Few Clouds and Breezy FEW065 57.2 30.2 36% 29.66 0.0
04 17:15 NW 29 G 39 10.00 Partly Cloudy and Windy SCT065 60.8 30.2 31% 29.64 0.0
04 16:55 NW 24 G 33 10.00 Fair and Breezy CLR 60.8 30.2 31% 29.63 0.0
04 16:35 NW 29 10.00 Fair and Windy CLR 62.6 30.2 30% 29.63 0.0
04 16:15 NW 25 G 35 10.00 Fair and Breezy CLR 60.8 28.4 29% 29.62 0.0
04 15:55 NW 23 G 39 10.00 Fair and Breezy CLR 60.8 30.2 31% 29.62 0.0
04 15:35 NW 26 G 38 10.00 Fair and Windy CLR 60.8 30.2 31% 29.62 0.0
04 15:15 NW 24 G 33 10.00 A Few Clouds and Breezy FEW120 60.8 30.2 31% 29.62 0.0
04 14:55 NW 23 G 35 9.00 Fair and Breezy CLR 62.6 30.2 30% 29.62 0.0
04 14:35 NW 28 G 39 9.00 Fair and Windy CLR 60.8 28.4 29% 29.61 0.0
04 14:15 NW 29 9.00 Fair and Windy CLR 62.6 26.6 25% 29.6 0.0
04 13:55 NW 26 G 36 7.00 Fair and Windy CLR 62.6 26.6 25% 29.59 0.0
04 13:35 NW 24 G 35 8.00 Fair and Breezy CLR 64.4 32 30% 29.59 0.0
04 13:15 NW 30 G 40 7.00 Fair and Windy CLR 62.6 28.4 27% 29.59 0.0
04 12:55 NW 31 G 38 6.00 Unknown Precip Haze and Windy CLR 62.6 30.2 30% 29.58 0.0
04 12:35 NW 24 G 33 4.00 Unknown Precip Haze and Breezy CLR 64.4 35.6 34% 29.57 0.0
04 12:15 NW 23 G 33 3.00 Unknown Precip Haze and Breezy CLR 64.4 32 30% 29.57 0.0
04 11:55 NW 22 G 29 10.00 Fair and Breezy CLR 64.4 33.8 32% 29.56 0.0
04 11:35 NW 21 G 33 9.00 Fair and Breezy CLR 64.4 32 30% 29.56 0.0
04 11:15 NW 23 G 31 9.00 Fair and Breezy CLR 64.4 32 30% 29.55 0.0
04 10:55 N 22 G 31 10.00 Fair and Breezy CLR 62.6 33.8 34% 29.54 0.0
04 10:35 NW 24 10.00 Fair and Breezy CLR 62.6 33.8 34% 29.54 0.0
04 10:15 NW 20 G 28 10.00 Fair CLR 60.8 33.8 36% 29.54 0.0
04 09:55 NW 22 10.00 Fair and Breezy CLR 60.8 33.8 36% 29.54 0.0
04 09:35 N 21 G 32 10.00 Fair and Breezy CLR 60.8 32 34% 29.54 0.0
04 09:15 N 22 G 29 10.00 Fair and Breezy CLR 59 35.6 42% 29.53 0.0
04 08:55 NW 20 G 26 10.00 Fair CLR 60.8 39.2 45% 29.53 0.0
04 08:35 NW 20 G 25 10.00 Fair CLR 60.8 39.2 45% 29.52 0.0
04 08:15 NW 22 G 28 10.00 Fair and Breezy CLR 59 39.2 48% 29.52 0.0
04 07:55 W 21 10.00 Fair and Breezy CLR 59 37.4 45% 29.52 0.0
04 07:35 W 17 10.00 Fair CLR 59 39.2 48% 29.51 0.0
04 07:15 W 17 10.00 Fair CLR 59 37.4 45% 29.48 0.0
04 06:55 W 21 10.00 Fair and Breezy CLR 59 37.4 45% 29.47 0.0
04 06:35 SW 21 G 28 10.00 Fair and Breezy CLR 57.2 37.4 48% 29.46 0.0
04 06:15 SW 20 10.00 Fair CLR 57.2 37.4 48% 29.46 0.0
04 05:55 SW 15 10.00 Fair CLR 55.4 37.4 51% 29.47 0.0
04 05:35 SW 16 10.00 Fair CLR 53.6 35.6 51% 29.47 0.0
04 05:15 SW 15 10.00 Fair CLR 53.6 35.6 51% 29.48 0.0
04 04:55 SW 13 10.00 Fair CLR 51.8 35.6 54% 29.49 0.0
04 04:35 SW 13 10.00 Fair CLR 51.8 35.6 54% 29.5 0.0
04 04:15 SW 14 10.00 Fair CLR 51.8 35.6 54% 29.5 0.0
04 03:55 SW 12 10.00 Fair CLR 50 35.6 58% 46 29.51 0.0
04 03:35 SW 12 10.00 Fair CLR 50 35.6 58% 46 29.52 0.0
04 03:15 SW 13 10.00 Fair CLR 48.2 35.6 62% 43 29.53 0.0
04 02:55 SW 12 10.00 Fair CLR 48.2 35.6 62% 44 29.54 0.0
04 02:35 SW 10 10.00 Fair CLR 48.2 35.6 62% 44 29.55 0.0
04 02:15 SW 12 10.00 Fair CLR 50 35.6 58% 46 29.56 0.0
04 01:35 SW 9 10.00 Fair CLR 50 35.6 58% 47 29.58 0.0
04 01:15 SW 9 10.00 Fair CLR 50 35.6 58% 47 29.59 0.0
04 00:55 SW 9 10.00 Fair CLR 51.8 35.6 54% 29.6 0.0
04 00:35 SW 10 10.00 Fair CLR 51.8 35.6 54% 29.61 0.0
04 00:15 W 6 G 12 10.00 Fair CLR 53.6 33.8 47% 29.62 0.0
03 23:55 SW 9 10.00 Fair CLR 53.6 33.8 47% 29.62 0.0
03 23:35 SW 9 10.00 Fair CLR 53.6 33.8 47% 29.63 0.0
03 23:15 SW 9 10.00 Fair CLR 53.6 33.8 47% 29.64 0.0
03 22:55 SW 8 10.00 Fair CLR 53.6 33.8 47% 29.65 0.0
03 22:35 SW 9 10.00 Fair CLR 55.4 33.8 44% 29.66 0.0
03 22:15 SW 7 10.00 Fair CLR 55.4 35.6 47% 29.67 0.0
03 21:55 SW 8 10.00 Fair CLR 55.4 35.6 47% 29.68 0.0
03 21:35 SW 8 10.00 Fair CLR 57.2 35.6 44% 29.68 0.0
03 21:15 W 7 10.00 Fair CLR 59 35.6 42% 29.68 0.0
03 20:55 W 7 10.00 Fair CLR 60.8 35.6 39% 29.68 0.0
03 20:35 W 3 10.00 Fair CLR 64.4 35.6 34% 29.67 0.0
03 20:15 W 3 10.00 Fair CLR 68 32 26% 29.67 0.0
03 19:55 Calm 10.00 Fair CLR 68 32 26% 29.67 0.0
03 19:35 NW 6 10.00 Fair CLR 69.8 32 25% 29.68 0.0
03 19:15 NW 7 G 14 10.00 Fair CLR 71.6 30.2 22% 29.69 0.0
03 18:55 NW 9 G 16 10.00 Fair CLR 71.6 30.2 22% 29.69 0.0
03 18:35 NW 9 G 22 10.00 Fair CLR 71.6 28.4 20% 29.7 0.0
03 18:15 NW 13 10.00 Fair CLR 71.6 30.2 22% 29.7 0.0
03 17:55 NW 16 G 22 10.00 Fair CLR 71.6 30.2 22% 29.71 0.0
03 17:35 NW 14 G 21 10.00 Fair CLR 71.6 30.2 22% 29.71 0.0
03 17:15 W 14 G 25 10.00 Fair CLR 71.6 30.2 22% 29.71 0.0
03 16:55 W 14 G 25 10.00 Fair CLR 71.6 30.2 22% 29.72 0.0
03 16:35 NW 17 G 23 10.00 Fair CLR 71.6 32 23% 29.72 0.0
03 16:15 NW 18 G 24 10.00 Fair CLR 71.6 32 23% 29.73 0.0
03 15:55 NW 20 10.00 Fair CLR 71.6 33.8 25% 29.73 0.0
03 15:35 NW 16 G 24 10.00 Fair CLR 71.6 33.8 25% 29.74 0.0
03 15:15 NW 20 G 26 10.00 Fair CLR 71.6 33.8 25% 29.75 0.0
03 14:55 NW 24 10.00 Fair and Breezy CLR 69.8 33.8 27% 29.75 0.0
03 14:35 NW 13 G 24 9.00 Fair CLR 69.8 32 25% 29.76 0.0
03 14:15 NW 17 G 26 10.00 Fair CLR 69.8 33.8 27% 29.77 0.0
03 13:55 NW 23 10.00 Fair and Breezy CLR 69.8 33.8 27% 29.77 0.0
03 13:35 NW 23 G 32 10.00 Fair and Breezy CLR 69.8 33.8 27% 29.77 0.0
03 13:15 NW 18 G 28 10.00 Fair CLR 68 33.8 28% 29.78 0.0
03 12:55 N 18 G 30 10.00 Fair CLR 68 33.8 28% 29.79 0.0
03 12:35 NW 18 G 33 10.00 Fair CLR 68 33.8 28% 29.79 0.0
03 12:15 N 18 G 30 10.00 Fair CLR 68 35.6 30% 29.79 0.0
03 11:55 N 22 10.00 Fair and Breezy CLR 68 35.6 30% 29.79 0.0
03 11:35 NW 24 G 30 10.00 Fair and Breezy CLR 66.2 37.4 35% 29.79 0.0
03 11:15 N 24 10.00 Fair and Breezy CLR 66.2 39.2 37% 29.78 0.0
03 10:55 NW 24 G 30 10.00 Fair and Breezy CLR 66.2 37.4 35% 29.79 0.0
03 10:35 NW 18 G 29 10.00 Fair CLR 64.4 37.4 37% 29.79 0.0
03 10:15 NW 18 G 28 10.00 Fair CLR 62.6 37.4 39% 29.78 0.0
03 09:55 NW 20 G 29 10.00 Fair CLR 60.8 37.4 42% 29.78 0.0
03 09:35 NW 20 G 28 10.00 Fair CLR 59 37.4 45% 29.78 0.0
03 09:15 NW 21 G 26 10.00 Fair and Breezy CLR 57.2 37.4 48% 29.78 0.0
03 08:55 NW 22 G 29 10.00 Fair and Breezy CLR 55.4 37.4 51% 29.77 0.0
03 08:35 NW 17 G 29 10.00 Fair CLR 55.4 37.4 51% 29.76 0.0
03 08:15 NW 22 10.00 Fair and Breezy CLR 53.6 37.4 54% 29.76 0.0
03 07:55 NW 20 G 26 10.00 Fair CLR 51.8 37.4 58% 29.75 0.0
03 07:35 NW 18 10.00 Fair CLR 51.8 37.4 58% 29.74 0.0
03 07:15 NW 18 G 29 10.00 Fair CLR 50 37.4 62% 44 29.73 0.0
03 06:55 NW 16 10.00 Fair CLR 50 37.4 62% 45 29.72 0.0
03 06:35 NW 15 G 23 10.00 Fair CLR 50 37.4 62% 45 29.71 0.0
03 06:15 NW 15 10.00 Fair CLR 50 37.4 62% 45 29.7 0.0
03 05:55 W 13 10.00 Fair CLR 51.8 37.4 58% 29.7 0.0
03 05:35 W 12 10.00 Fair CLR 53.6 37.4 54% 29.69 0.0
03 05:15 W 10 G 17 10.00 Fair CLR 53.6 37.4 54% 29.7 0.0
03 04:55 W 10 10.00 A Few Clouds FEW095 53.6 33.8 47% 29.7 0.0
03 04:35 W 10 10.00 Mostly Cloudy BKN095 53.6 33.8 47% 29.7 0.0
03 04:15 SW 12 10.00 Overcast OVC095 55.4 33.8 44% 29.71 0.0
03 03:55 SW 12 10.00 Overcast OVC095 55.4 35.6 47% 29.71 0.0
03 03:35 SW 10 10.00 Mostly Cloudy BKN100 53.6 35.6 51% 29.71 0.0
03 03:15 S 13 10.00 Partly Cloudy SCT100 55.4 32 41% 29.71 0.0
03 02:55 S 13 10.00 Overcast OVC100 55.4 32 41% 29.72 0.0
03 02:35 S 16 10.00 Partly Cloudy SCT110 55.4 32 41% 29.73 0.0
03 02:15 S 15 10.00 Partly Cloudy FEW075 FEW090 SCT110 57.2 32 39% 29.73 0.0
03 01:55 S 17 10.00 Mostly Cloudy FEW020 SCT042 BKN075 57.2 32 39% 29.74 0.0
03 01:35 SE 17 10.00 Mostly Cloudy FEW020 SCT042 BKN070 57.2 33.8 41% 29.75 0.0
03 01:15 SE 15 10.00 Mostly Cloudy FEW021 SCT042 BKN060 57.2 32 39% 29.78 0.0
03 00:55 SE 8 10.00 Overcast FEW047 BKN070 OVC090 57.2 33.8 41% 29.79 0.0
03 00:35 SE 8 10.00 Overcast SCT075 OVC090 59 32 36% 29.8 0.0
03 00:15 S 12 G 18 10.00 Overcast SCT060 BKN075 OVC090 59 32 36% 29.79 0.0
02 23:55 S 17 10.00 Mostly Cloudy FEW022 SCT035 BKN055 59 33.8 39% 29.79 0.0
02 23:35 S 14 G 20 10.00 Overcast FEW022 BKN075 OVC100 59 32 36% 29.8 0.0
02 23:15 S 13 G 20 10.00 Overcast FEW065 BKN075 OVC100 60.8 32 34% 29.79 0.0
02 22:35 S 14 10.00 Overcast FEW060 BKN075 OVC090 59 33.8 39% 29.82 0.0
02 22:15 S 12 10.00 Overcast FEW080 OVC090 59 33.8 39% 29.82 0.0
02 21:55 S 10 10.00 Overcast BKN090 OVC110 59 33.8 39% 29.82 0.0
02 21:35 S 10 10.00 Overcast BKN090 OVC110 59 33.8 39% 29.83 0.0
02 21:15 S 9 10.00 Overcast BKN090 OVC120 59 33.8 39% 29.84 0.0
02 20:55 S 8 10.00 Overcast FEW080 OVC090 60.8 33.8 36% 29.85 0.0
02 20:35 S 7 10.00 Overcast BKN080 OVC090 60.8 35.6 39% 29.85 0.0
02 20:15 SW 8 10.00 Overcast SCT080 OVC090 62.6 33.8 34% 29.86 0.0
02 19:55 SW 7 10.00 Overcast FEW080 OVC090 62.6 33.8 34% 29.86 0.0
02 19:35 SW 8 G 16 10.00 Overcast FEW065 SCT075 OVC085 64.4 32 30% 29.87 0.0
02 19:15 W 13 10.00 Overcast SCT080 OVC090 64.4 30.2 28% 29.87 0.0
02 18:55 W 10 10.00 Overcast BKN100 OVC120 66.2 32 28% 29.87 0.0
02 18:35 SW 14 10.00 Mostly Cloudy BKN110 66.2 30.2 26% 29.87 0.0
02 18:15 SW 15 G 24 10.00 A Few Clouds FEW090 66.2 30.2 26% 29.88 0.0
02 17:55 W 17 10.00 A Few Clouds FEW090 68 30.2 24% 29.88 0.0
Date Time (cdt) Wind (mph) Vis. (mi.) Weather Sky Cond. Air Dwpt Max. Min. Relative Humidity Wind Chill (°F) Heat Index (°F) altimeter (in) sea level (mb) 1 hr 3 hr 6 hr
6 hour
Temperature (ºF) Pressure Precipitation (in)